sensor_id;sensor_type;location;lat;lon;timestamp;pressure;altitude;pressure_sealevel;temperature;humidity
20027;BME280;10174;42.688;23.344;2022-11-15T00:01:35;95942.25;;;2.71;90.87
20027;BME280;10174;42.688;23.344;2022-11-15T00:04:03;95951.03;;;2.78;90.36
20027;BME280;10174;42.688;23.344;2022-11-15T00:06:28;95965.78;;;2.87;90.26
20027;BME280;10174;42.688;23.344;2022-11-15T00:08:54;95924.03;;;2.54;90.15
20027;BME280;10174;42.688;23.344;2022-11-15T00:11:19;95955.75;;;2.76;90.99
20027;BME280;10174;42.688;23.344;2022-11-15T00:13:44;95938.94;;;2.62;90.67
20027;BME280;10174;42.688;23.344;2022-11-15T00:16:10;95851.78;;;2.10;90.71
20027;BME280;10174;42.688;23.344;2022-11-15T00:18:35;95947.13;;;2.67;90.66
20027;BME280;10174;42.688;23.344;2022-11-15T00:21:06;95925.88;;;2.60;90.97
20027;BME280;10174;42.688;23.344;2022-11-15T00:23:33;95955.34;;;2.79;90.46
20027;BME280;10174;42.688;23.344;2022-11-15T00:25:59;95957.38;;;2.77;90.58
20027;BME280;10174;42.688;23.344;2022-11-15T00:28:25;95949.19;;;2.72;90.89
20027;BME280;10174;42.688;23.344;2022-11-15T00:30:51;95942.66;;;2.67;90.55
20027;BME280;10174;42.688;23.344;2022-11-15T00:33:17;95909.50;;;2.50;90.80
20027;BME280;10174;42.688;23.344;2022-11-15T00:35:42;95925.47;;;2.57;90.69
20027;BME280;10174;42.688;23.344;2022-11-15T00:38:08;95937.56;;;2.73;90.60
20027;BME280;10174;42.688;23.344;2022-11-15T00:40:33;95825.25;;;1.97;90.72
20027;BME280;10174;42.688;23.344;2022-11-15T00:42:58;95819.50;;;1.93;90.67
20027;BME280;10174;42.688;23.344;2022-11-15T00:45:24;95936.09;;;2.63;90.51
20027;BME280;10174;42.688;23.344;2022-11-15T00:47:50;95919.72;;;2.53;90.74
20027;BME280;10174;42.688;23.344;2022-11-15T00:50:16;95937.31;;;2.61;90.49
20027;BME280;10174;42.688;23.344;2022-11-15T00:52:41;95906.56;;;2.31;90.65
20027;BME280;10174;42.688;23.344;2022-11-15T00:55:12;95915.13;;;2.34;90.39
20027;BME280;10174;42.688;23.344;2022-11-15T00:57:38;95910.22;;;2.30;90.59
20027;BME280;10174;42.688;23.344;2022-11-15T01:00:04;95937.22;;;2.41;90.83
20027;BME280;10174;42.688;23.344;2022-11-15T01:02:30;95907.75;;;2.22;91.18
20027;BME280;10174;42.688;23.344;2022-11-15T01:04:55;95931.91;;;2.41;91.26
20027;BME280;10174;42.688;23.344;2022-11-15T01:07:21;95905.31;;;2.27;91.14
20027;BME280;10174;42.688;23.344;2022-11-15T01:09:46;95936.22;;;2.42;90.67
20027;BME280;10174;42.688;23.344;2022-11-15T01:12:11;95929.44;;;2.33;91.00
20027;BME280;10174;42.688;23.344;2022-11-15T01:14:37;95888.28;;;2.02;91.33
20027;BME280;10174;42.688;23.344;2022-11-15T01:17:02;95930.44;;;2.31;91.38
20027;BME280;10174;42.688;23.344;2022-11-15T01:19:27;95934.69;;;2.26;91.15
20027;BME280;10174;42.688;23.344;2022-11-15T01:21:53;95806.19;;;1.45;91.23
20027;BME280;10174;42.688;23.344;2022-11-15T01:24:18;95928.97;;;2.22;91.25
20027;BME280;10174;42.688;23.344;2022-11-15T01:26:43;95930.59;;;2.23;91.13
20027;BME280;10174;42.688;23.344;2022-11-15T01:29:09;95895.84;;;2.11;91.17
20027;BME280;10174;42.688;23.344;2022-11-15T01:31:34;95813.97;;;1.53;91.35
20027;BME280;10174;42.688;23.344;2022-11-15T01:34:00;95813.78;;;1.55;90.89
20027;BME280;10174;42.688;23.344;2022-11-15T01:36:25;95925.31;;;2.23;91.14
20027;BME280;10174;42.688;23.344;2022-11-15T01:38:55;95905.00;;;2.09;90.54
20027;BME280;10174;42.688;23.344;2022-11-15T01:41:30;95926.09;;;2.17;90.85
20027;BME280;10174;42.688;23.344;2022-11-15T01:47:03;95892.53;;;2.03;90.97
20027;BME280;10174;42.688;23.344;2022-11-15T01:49:33;95837.03;;;1.59;90.61
20027;BME280;10174;42.688;23.344;2022-11-15T01:52:02;95921.31;;;2.06;90.68
20027;BME280;10174;42.688;23.344;2022-11-15T01:54:29;95802.03;;;1.36;91.11
20027;BME280;10174;42.688;23.344;2022-11-15T01:57:07;95896.63;;;1.99;91.15
20027;BME280;10174;42.688;23.344;2022-11-15T01:59:37;95897.91;;;2.09;90.84
20027;BME280;10174;42.688;23.344;2022-11-15T02:02:03;95901.53;;;2.02;90.94
20027;BME280;10174;42.688;23.344;2022-11-15T02:04:31;95818.09;;;1.56;90.70
20027;BME280;10174;42.688;23.344;2022-11-15T02:06:58;95899.50;;;2.10;90.25
20027;BME280;10174;42.688;23.344;2022-11-15T02:09:25;95906.66;;;2.10;90.50
20027;BME280;10174;42.688;23.344;2022-11-15T02:11:50;95889.31;;;2.07;90.74
20027;BME280;10174;42.688;23.344;2022-11-15T02:14:19;95905.25;;;2.14;91.03
20027;BME280;10174;42.688;23.344;2022-11-15T02:25:06;95913.84;;;2.16;90.77
20027;BME280;10174;42.688;23.344;2022-11-15T02:28:38;95903.97;;;2.03;90.36
20027;BME280;10174;42.688;23.344;2022-11-15T02:41:48;95885.47;;;1.82;91.21
20027;BME280;10174;42.688;23.344;2022-11-15T02:44:39;95897.00;;;1.95;90.61
20027;BME280;10174;42.688;23.344;2022-11-15T02:47:11;95897.41;;;1.92;89.96
20027;BME280;10174;42.688;23.344;2022-11-15T02:49:47;95919.81;;;1.96;90.37
20027;BME280;10174;42.688;23.344;2022-11-15T02:52:21;95897.69;;;1.76;90.48
20027;BME280;10174;42.688;23.344;2022-11-15T02:55:00;95919.34;;;1.86;91.03
20027;BME280;10174;42.688;23.344;2022-11-15T03:00:15;95895.03;;;1.76;91.24
20027;BME280;10174;42.688;23.344;2022-11-15T03:08:08;95891.84;;;1.87;90.48
20027;BME280;10174;42.688;23.344;2022-11-15T03:11:07;95922.06;;;2.28;89.80
20027;BME280;10174;42.688;23.344;2022-11-15T03:13:49;95902.84;;;2.26;89.48
20027;BME280;10174;42.688;23.344;2022-11-15T03:18:57;95887.53;;;2.21;89.53
20027;BME280;10174;42.688;23.344;2022-11-15T03:21:24;95874.25;;;2.14;89.69
20027;BME280;10174;42.688;23.344;2022-11-15T03:23:51;95796.91;;;1.63;90.39
20027;BME280;10174;42.688;23.344;2022-11-15T03:26:19;95901.13;;;2.46;91.69
20027;BME280;10174;42.688;23.344;2022-11-15T03:28:52;95904.25;;;2.57;91.23
20027;BME280;10174;42.688;23.344;2022-11-15T03:31:22;95886.59;;;2.36;91.89
20027;BME280;10174;42.688;23.344;2022-11-15T03:34:15;95901.06;;;2.33;92.30
20027;BME280;10174;42.688;23.344;2022-11-15T03:36:44;95862.41;;;2.10;92.72
20027;BME280;10174;42.688;23.344;2022-11-15T03:39:12;95856.28;;;2.10;93.01
20027;BME280;10174;42.688;23.344;2022-11-15T03:46:47;95858.75;;;2.18;93.06
20027;BME280;10174;42.688;23.344;2022-11-15T03:49:21;95878.25;;;2.39;93.49
20027;BME280;10174;42.688;23.344;2022-11-15T03:51:49;95847.16;;;2.19;93.06
20027;BME280;10174;42.688;23.344;2022-11-15T03:54:15;95885.56;;;2.37;93.58
20027;BME280;10174;42.688;23.344;2022-11-15T03:56:40;95862.28;;;2.25;93.78
20027;BME280;10174;42.688;23.344;2022-11-15T03:59:05;95851.47;;;2.34;93.82
20027;BME280;10174;42.688;23.344;2022-11-15T04:01:31;95871.97;;;2.46;93.49
20027;BME280;10174;42.688;23.344;2022-11-15T04:03:56;95844.16;;;2.36;93.26
20027;BME280;10174;42.688;23.344;2022-11-15T04:06:22;95882.97;;;2.50;93.69
20027;BME280;10174;42.688;23.344;2022-11-15T04:08:48;95852.53;;;2.39;93.61
20027;BME280;10174;42.688;23.344;2022-11-15T04:11:13;95868.91;;;2.56;93.64
20027;BME280;10174;42.688;23.344;2022-11-15T04:13:38;95850.72;;;2.40;93.45
20027;BME280;10174;42.688;23.344;2022-11-15T04:16:04;95845.41;;;2.40;92.89
20027;BME280;10174;42.688;23.344;2022-11-15T04:18:29;95838.22;;;2.34;93.33
20027;BME280;10174;42.688;23.344;2022-11-15T04:20:54;95797.56;;;2.13;92.68
20027;BME280;10174;42.688;23.344;2022-11-15T04:23:38;95854.03;;;2.55;92.68
20027;BME280;10174;42.688;23.344;2022-11-15T04:26:22;95862.22;;;2.60;92.17
20027;BME280;10174;42.688;23.344;2022-11-15T04:28:48;95804.00;;;2.45;92.16
20027;BME280;10174;42.688;23.344;2022-11-15T04:31:37;95811.00;;;2.60;91.61
20027;BME280;10174;42.688;23.344;2022-11-15T04:34:02;95825.09;;;2.80;90.68
20027;BME280;10174;42.688;23.344;2022-11-15T04:36:27;95861.09;;;3.10;89.76
20027;BME280;10174;42.688;23.344;2022-11-15T04:39:11;95837.78;;;2.98;89.12
20027;BME280;10174;42.688;23.344;2022-11-15T04:41:36;95851.69;;;2.94;89.93
20027;BME280;10174;42.688;23.344;2022-11-15T04:44:02;95833.69;;;2.89;89.86
20027;BME280;10174;42.688;23.344;2022-11-15T04:46:27;95858.22;;;2.98;89.52
20027;BME280;10174;42.688;23.344;2022-11-15T04:48:53;95827.16;;;2.85;89.31
20027;BME280;10174;42.688;23.344;2022-11-15T04:51:19;95866.81;;;3.13;89.09
20027;BME280;10174;42.688;23.344;2022-11-15T04:53:44;95868.66;;;2.99;89.68
20027;BME280;10174;42.688;23.344;2022-11-15T04:56:10;95856.75;;;2.75;90.87
20027;BME280;10174;42.688;23.344;2022-11-15T04:58:35;95861.66;;;2.85;90.14
20027;BME280;10174;42.688;23.344;2022-11-15T05:01:08;95838.97;;;2.76;89.90
20027;BME280;10174;42.688;23.344;2022-11-15T05:03:34;95859.22;;;3.03;89.33
20027;BME280;10174;42.688;23.344;2022-11-15T05:06:18;95847.19;;;2.88;88.74
20027;BME280;10174;42.688;23.344;2022-11-15T05:08:43;95794.63;;;2.56;88.10
20027;BME280;10174;42.688;23.344;2022-11-15T05:11:08;95850.88;;;2.93;88.16
20027;BME280;10174;42.688;23.344;2022-11-15T05:13:34;95872.09;;;3.07;87.78
20027;BME280;10174;42.688;23.344;2022-11-15T05:15:59;95874.78;;;3.13;87.53
20027;BME280;10174;42.688;23.344;2022-11-15T05:18:25;95880.72;;;3.15;87.90
20027;BME280;10174;42.688;23.344;2022-11-15T05:20:50;95857.22;;;3.12;87.51
20027;BME280;10174;42.688;23.344;2022-11-15T05:23:15;95852.72;;;3.19;87.44
20027;BME280;10174;42.688;23.344;2022-11-15T05:25:41;95832.91;;;3.15;87.31
20027;BME280;10174;42.688;23.344;2022-11-15T05:28:06;95825.97;;;3.08;87.83
20027;BME280;10174;42.688;23.344;2022-11-15T05:30:31;95748.53;;;2.77;87.42
20027;BME280;10174;42.688;23.344;2022-11-15T05:32:57;95839.22;;;3.34;87.21
20027;BME280;10174;42.688;23.344;2022-11-15T05:35:44;95832.31;;;3.33;87.58
20027;BME280;10174;42.688;23.344;2022-11-15T05:38:11;95839.25;;;3.41;87.35
20027;BME280;10174;42.688;23.344;2022-11-15T05:40:37;95854.75;;;3.64;87.53
20027;BME280;10174;42.688;23.344;2022-11-15T05:43:03;95855.59;;;3.71;87.72
20027;BME280;10174;42.688;23.344;2022-11-15T05:45:29;95850.88;;;3.73;88.49
20027;BME280;10174;42.688;23.344;2022-11-15T05:47:58;95758.13;;;3.25;88.51
20027;BME280;10174;42.688;23.344;2022-11-15T05:50:25;95853.09;;;3.90;88.80
20027;BME280;10174;42.688;23.344;2022-11-15T05:52:51;95538.19;;;1.96;88.07
20027;BME280;10174;42.688;23.344;2022-11-15T05:55:17;95858.19;;;3.98;88.40
20027;BME280;10174;42.688;23.344;2022-11-15T05:57:42;95857.81;;;3.88;89.25
20027;BME280;10174;42.688;23.344;2022-11-15T06:00:08;95869.22;;;3.95;89.22
20027;BME280;10174;42.688;23.344;2022-11-15T06:02:34;95850.03;;;3.80;89.43
20027;BME280;10174;42.688;23.344;2022-11-15T06:05:00;95847.78;;;3.77;90.36
20027;BME280;10174;42.688;23.344;2022-11-15T06:07:25;95802.22;;;3.66;89.58
20027;BME280;10174;42.688;23.344;2022-11-15T06:09:50;95856.94;;;4.14;88.85
20027;BME280;10174;42.688;23.344;2022-11-15T06:12:16;95856.97;;;4.01;89.55
20027;BME280;10174;42.688;23.344;2022-11-15T06:14:41;95859.44;;;3.96;89.31
20027;BME280;10174;42.688;23.344;2022-11-15T06:17:06;95868.19;;;4.09;89.64
20027;BME280;10174;42.688;23.344;2022-11-15T06:19:32;95880.59;;;4.29;88.29
20027;BME280;10174;42.688;23.344;2022-11-15T06:22:00;95788.94;;;3.66;88.32
20027;BME280;10174;42.688;23.344;2022-11-15T06:24:26;95856.50;;;4.10;87.98
20027;BME280;10174;42.688;23.344;2022-11-15T06:26:51;95827.09;;;3.92;87.94
20027;BME280;10174;42.688;23.344;2022-11-15T06:29:17;95868.72;;;4.32;88.28
20027;BME280;10174;42.688;23.344;2022-11-15T06:31:42;95873.19;;;4.44;87.50
20027;BME280;10174;42.688;23.344;2022-11-15T06:34:08;95861.31;;;4.47;87.04
20027;BME280;10174;42.688;23.344;2022-11-15T06:36:34;95865.00;;;4.46;87.55
20027;BME280;10174;42.688;23.344;2022-11-15T06:39:00;95851.97;;;4.31;88.37
20027;BME280;10174;42.688;23.344;2022-11-15T06:41:25;95855.25;;;4.20;89.39
20027;BME280;10174;42.688;23.344;2022-11-15T06:43:51;95836.47;;;4.15;89.53
20027;BME280;10174;42.688;23.344;2022-11-15T06:46:16;95841.75;;;4.28;89.23
20027;BME280;10174;42.688;23.344;2022-11-15T06:48:41;95859.53;;;4.34;89.03
20027;BME280;10174;42.688;23.344;2022-11-15T06:51:07;95872.81;;;4.27;89.58
20027;BME280;10174;42.688;23.344;2022-11-15T06:53:33;95797.81;;;4.05;87.71
20027;BME280;10174;42.688;23.344;2022-11-15T06:56:00;95787.50;;;3.70;88.97
20027;BME280;10174;42.688;23.344;2022-11-15T06:58:25;95852.03;;;4.04;89.74
20027;BME280;10174;42.688;23.344;2022-11-15T07:00:51;95834.88;;;4.00;89.57
20027;BME280;10174;42.688;23.344;2022-11-15T07:03:16;95847.44;;;4.32;88.27
20027;BME280;10174;42.688;23.344;2022-11-15T07:05:41;95762.31;;;3.80;88.60
20027;BME280;10174;42.688;23.344;2022-11-15T07:08:07;95860.50;;;4.46;88.92
20027;BME280;10174;42.688;23.344;2022-11-15T07:10:32;95858.59;;;4.60;88.08
20027;BME280;10174;42.688;23.344;2022-11-15T07:12:58;95847.13;;;4.60;87.27
20027;BME280;10174;42.688;23.344;2022-11-15T07:15:24;95842.66;;;4.54;87.48
20027;BME280;10174;42.688;23.344;2022-11-15T07:17:50;95821.44;;;4.40;87.35
20027;BME280;10174;42.688;23.344;2022-11-15T07:20:17;95838.34;;;4.53;87.07
20027;BME280;10174;42.688;23.344;2022-11-15T07:22:42;95853.94;;;4.49;86.82
20027;BME280;10174;42.688;23.344;2022-11-15T07:25:10;95798.00;;;4.17;86.83
20027;BME280;10174;42.688;23.344;2022-11-15T07:27:36;95818.22;;;4.25;87.72
20027;BME280;10174;42.688;23.344;2022-11-15T07:30:01;95855.19;;;4.46;88.03
20027;BME280;10174;42.688;23.344;2022-11-15T07:32:26;95860.16;;;4.30;88.99
20027;BME280;10174;42.688;23.344;2022-11-15T07:34:52;95856.50;;;4.10;89.70
20027;BME280;10174;42.688;23.344;2022-11-15T07:37:18;95837.72;;;4.05;89.64
20027;BME280;10174;42.688;23.344;2022-11-15T07:39:44;95861.38;;;4.27;89.86
20027;BME280;10174;42.688;23.344;2022-11-15T07:42:09;95826.91;;;3.93;90.02
20027;BME280;10174;42.688;23.344;2022-11-15T07:44:53;95850.44;;;3.90;90.49
20027;BME280;10174;42.688;23.344;2022-11-15T07:47:18;95860.63;;;4.06;90.60
20027;BME280;10174;42.688;23.344;2022-11-15T07:49:44;95835.22;;;4.10;90.30
20027;BME280;10174;42.688;23.344;2022-11-15T07:52:11;95860.50;;;4.46;90.36
20027;BME280;10174;42.688;23.344;2022-11-15T07:54:36;95846.78;;;4.50;89.71
20027;BME280;10174;42.688;23.344;2022-11-15T07:57:02;95764.91;;;4.06;88.90
20027;BME280;10174;42.688;23.344;2022-11-15T07:59:27;95832.50;;;4.37;88.89
20027;BME280;10174;42.688;23.344;2022-11-15T08:01:53;95831.44;;;4.45;88.95
20027;BME280;10174;42.688;23.344;2022-11-15T08:04:18;95858.22;;;4.50;89.25
20027;BME280;10174;42.688;23.344;2022-11-15T08:06:43;95848.69;;;4.29;89.29
20027;BME280;10174;42.688;23.344;2022-11-15T08:09:09;95799.09;;;3.96;89.89
20027;BME280;10174;42.688;23.344;2022-11-15T08:11:34;95848.28;;;4.32;89.49
20027;BME280;10174;42.688;23.344;2022-11-15T08:13:59;95831.16;;;4.01;90.42
20027;BME280;10174;42.688;23.344;2022-11-15T08:16:25;95845.88;;;4.10;90.50
20027;BME280;10174;42.688;23.344;2022-11-15T08:18:50;95837.13;;;4.03;91.25
20027;BME280;10174;42.688;23.344;2022-11-15T08:21:19;95781.75;;;3.73;90.87
20027;BME280;10174;42.688;23.344;2022-11-15T08:23:45;95825.16;;;4.26;90.06
20027;BME280;10174;42.688;23.344;2022-11-15T08:26:11;95708.56;;;3.78;89.31
20027;BME280;10174;42.688;23.344;2022-11-15T08:28:36;95839.38;;;4.52;89.18
20027;BME280;10174;42.688;23.344;2022-11-15T08:31:03;95769.03;;;3.96;89.71
20027;BME280;10174;42.688;23.344;2022-11-15T08:33:29;95811.69;;;4.21;89.88
20027;BME280;10174;42.688;23.344;2022-11-15T08:35:59;95715.91;;;3.75;89.46
20027;BME280;10174;42.688;23.344;2022-11-15T08:38:25;95712.19;;;3.90;88.56
20027;BME280;10174;42.688;23.344;2022-11-15T08:40:52;95817.69;;;4.87;88.01
20027;BME280;10174;42.688;23.344;2022-11-15T08:43:18;95833.88;;;4.85;87.67
20027;BME280;10174;42.688;23.344;2022-11-15T08:45:44;95811.63;;;4.73;88.24
20027;BME280;10174;42.688;23.344;2022-11-15T08:48:10;95736.09;;;4.67;86.44
20027;BME280;10174;42.688;23.344;2022-11-15T08:50:35;95654.41;;;4.10;86.36
20027;BME280;10174;42.688;23.344;2022-11-15T08:53:07;95821.81;;;5.14;86.56
20027;BME280;10174;42.688;23.344;2022-11-15T08:55:36;95824.16;;;5.55;85.28
20027;BME280;10174;42.688;23.344;2022-11-15T08:58:01;95799.47;;;5.15;85.90
20027;BME280;10174;42.688;23.344;2022-11-15T09:00:27;95810.13;;;5.15;86.11
20027;BME280;10174;42.688;23.344;2022-11-15T09:02:52;95766.16;;;4.74;87.04
20027;BME280;10174;42.688;23.344;2022-11-15T09:05:18;95804.88;;;5.02;87.34
20027;BME280;10174;42.688;23.344;2022-11-15T09:07:43;95801.50;;;4.88;87.75
20027;BME280;10174;42.688;23.344;2022-11-15T09:10:09;95805.00;;;4.89;88.05
20027;BME280;10174;42.688;23.344;2022-11-15T09:12:34;95722.97;;;4.40;87.84
20027;BME280;10174;42.688;23.344;2022-11-15T09:15:00;95772.50;;;4.73;88.43
20027;BME280;10174;42.688;23.344;2022-11-15T09:17:25;95764.16;;;4.70;88.24
20027;BME280;10174;42.688;23.344;2022-11-15T09:19:51;95622.13;;;3.68;88.45
20027;BME280;10174;42.688;23.344;2022-11-15T09:22:16;95785.31;;;4.90;88.32
20027;BME280;10174;42.688;23.344;2022-11-15T09:24:42;95770.75;;;5.17;87.36
20027;BME280;10174;42.688;23.344;2022-11-15T09:27:07;95768.38;;;5.09;86.51
20027;BME280;10174;42.688;23.344;2022-11-15T09:29:32;95742.72;;;4.90;87.34
20027;BME280;10174;42.688;23.344;2022-11-15T09:31:58;95694.44;;;4.54;87.67
20027;BME280;10174;42.688;23.344;2022-11-15T09:34:24;95768.16;;;5.11;87.43
20027;BME280;10174;42.688;23.344;2022-11-15T09:36:49;95768.44;;;5.28;86.51
20027;BME280;10174;42.688;23.344;2022-11-15T09:39:15;95762.41;;;5.39;86.01
20027;BME280;10174;42.688;23.344;2022-11-15T09:49:53;95766.00;;;5.45;85.87
20027;BME280;10174;42.688;23.344;2022-11-15T09:52:21;95741.00;;;5.21;86.59
20027;BME280;10174;42.688;23.344;2022-11-15T09:54:48;95697.66;;;4.88;86.08
20027;BME280;10174;42.688;23.344;2022-11-15T09:57:31;95744.31;;;5.41;86.50
20027;BME280;10174;42.688;23.344;2022-11-15T10:00:13;95744.34;;;5.78;85.67
20027;BME280;10174;42.688;23.344;2022-11-15T10:05:18;95703.03;;;6.06;82.57
20027;BME280;10174;42.688;23.344;2022-11-15T10:10:42;95610.88;;;5.92;81.57
20027;BME280;10174;42.688;23.344;2022-11-15T10:13:19;95721.34;;;6.63;81.22
20027;BME280;10174;42.688;23.344;2022-11-15T10:15:48;95701.72;;;6.27;81.91
20027;BME280;10174;42.688;23.344;2022-11-15T10:18:15;95708.63;;;6.77;80.67
20027;BME280;10174;42.688;23.344;2022-11-15T10:20:56;95714.84;;;7.48;78.05
20027;BME280;10174;42.688;23.344;2022-11-15T10:23:23;95699.13;;;7.76;76.41
20027;BME280;10174;42.688;23.344;2022-11-15T10:25:52;95694.53;;;8.58;73.59
20027;BME280;10174;42.688;23.344;2022-11-15T10:28:26;95703.69;;;8.73;72.17
20027;BME280;10174;42.688;23.344;2022-11-15T10:30:57;95700.03;;;8.80;71.38
20027;BME280;10174;42.688;23.344;2022-11-15T10:41:13;95673.66;;;9.44;68.49
20027;BME280;10174;42.688;23.344;2022-11-15T10:43:39;95641.72;;;9.21;68.53
20027;BME280;10174;42.688;23.344;2022-11-15T10:46:24;95663.28;;;9.70;68.19
20027;BME280;10174;42.688;23.344;2022-11-15T10:48:50;95592.78;;;9.53;67.92
20027;BME280;10174;42.688;23.344;2022-11-15T10:51:27;95647.34;;;10.30;65.71
20027;BME280;10174;42.688;23.344;2022-11-15T10:53:55;95643.66;;;10.36;66.13
20027;BME280;10174;42.688;23.344;2022-11-15T10:56:24;95600.38;;;10.05;65.27
20027;BME280;10174;42.688;23.344;2022-11-15T10:58:55;95563.16;;;9.42;66.33
20027;BME280;10174;42.688;23.344;2022-11-15T11:01:26;95622.69;;;9.22;68.67
20027;BME280;10174;42.688;23.344;2022-11-15T11:04:01;95634.03;;;9.30;69.25
20027;BME280;10174;42.688;23.344;2022-11-15T11:06:27;95588.16;;;9.26;68.56
20027;BME280;10174;42.688;23.344;2022-11-15T11:11:20;95626.69;;;9.42;69.09
20027;BME280;10174;42.688;23.344;2022-11-15T11:13:46;95512.00;;;8.83;68.62
20027;BME280;10174;42.688;23.344;2022-11-15T11:19:04;95619.88;;;9.73;68.10
20027;BME280;10174;42.688;23.344;2022-11-15T11:21:49;95587.72;;;9.34;68.58
20027;BME280;10174;42.688;23.344;2022-11-15T11:24:36;95609.59;;;9.26;69.71
20027;BME280;10174;42.688;23.344;2022-11-15T11:40:30;95538.91;;;8.54;73.49
20027;BME280;10174;42.688;23.344;2022-11-15T11:46:14;95560.84;;;8.90;72.52
20027;BME280;10174;42.688;23.344;2022-11-15T11:48:57;95456.75;;;8.43;73.08
20027;BME280;10174;42.688;23.344;2022-11-15T11:51:45;95553.56;;;9.24;72.00
20027;BME280;10174;42.688;23.344;2022-11-15T11:54:20;95460.84;;;9.06;70.83
20027;BME280;10174;42.688;23.344;2022-11-15T11:56:47;95506.16;;;9.52;69.47
20027;BME280;10174;42.688;23.344;2022-11-15T11:59:25;95517.50;;;9.59;70.24
20027;BME280;10174;42.688;23.344;2022-11-15T12:01:54;95539.03;;;9.42;71.50
20027;BME280;10174;42.688;23.344;2022-11-15T12:07:01;95422.72;;;8.21;72.73
20027;BME280;10174;42.688;23.344;2022-11-15T12:09:53;95506.34;;;8.62;73.52
20027;BME280;10174;42.688;23.344;2022-11-15T12:15:04;95520.88;;;8.49;74.67
20027;BME280;10174;42.688;23.344;2022-11-15T12:17:37;95514.84;;;8.76;74.75
20027;BME280;10174;42.688;23.344;2022-11-15T12:20:13;95507.03;;;8.74;73.93
20027;BME280;10174;42.688;23.344;2022-11-15T12:26:04;95482.09;;;8.91;74.68
20027;BME280;10174;42.688;23.344;2022-11-15T12:30:59;95484.81;;;9.62;70.15
20027;BME280;10174;42.688;23.344;2022-11-15T12:33:35;95443.91;;;9.50;69.85
20027;BME280;10174;42.688;23.344;2022-11-15T12:36:10;95429.47;;;9.84;69.22
20027;BME280;10174;42.688;23.344;2022-11-15T12:39:01;95486.44;;;10.23;68.11
20027;BME280;10174;42.688;23.344;2022-11-15T12:41:38;95479.31;;;10.34;68.16
20027;BME280;10174;42.688;23.344;2022-11-15T12:44:10;95394.47;;;9.68;68.09
20027;BME280;10174;42.688;23.344;2022-11-15T12:59:51;95463.91;;;9.97;70.28
20027;BME280;10174;42.688;23.344;2022-11-15T13:02:33;95375.97;;;9.39;69.03
20027;BME280;10174;42.688;23.344;2022-11-15T13:17:39;95447.31;;;8.74;74.18
20027;BME280;10174;42.688;23.344;2022-11-15T13:33:20;95430.47;;;8.56;75.26
20027;BME280;10174;42.688;23.344;2022-11-15T13:35:48;95361.50;;;8.08;75.25
20027;BME280;10174;42.688;23.344;2022-11-15T13:40:49;95397.09;;;8.25;75.68
20027;BME280;10174;42.688;23.344;2022-11-15T13:46:03;95421.38;;;8.41;76.84
20027;BME280;10174;42.688;23.344;2022-11-15T13:48:29;95422.88;;;8.48;76.61
20027;BME280;10174;42.688;23.344;2022-11-15T13:50:56;95415.63;;;8.49;76.05
20027;BME280;10174;42.688;23.344;2022-11-15T13:53:23;95426.44;;;8.54;76.69
20027;BME280;10174;42.688;23.344;2022-11-15T13:55:49;95421.63;;;8.56;76.23
20027;BME280;10174;42.688;23.344;2022-11-15T13:58:16;95414.22;;;8.63;76.80
20027;BME280;10174;42.688;23.344;2022-11-15T14:00:43;95420.88;;;8.61;76.23
20027;BME280;10174;42.688;23.344;2022-11-15T14:03:25;95314.59;;;7.83;76.41
20027;BME280;10174;42.688;23.344;2022-11-15T14:06:08;95390.75;;;8.31;77.03
20027;BME280;10174;42.688;23.344;2022-11-15T14:08:41;95425.13;;;8.39;77.02
20027;BME280;10174;42.688;23.344;2022-11-15T14:11:19;95326.53;;;7.75;77.05
20027;BME280;10174;42.688;23.344;2022-11-15T14:16:46;95396.28;;;8.08;78.19
20027;BME280;10174;42.688;23.344;2022-11-15T14:19:33;95409.53;;;8.36;77.68
20027;BME280;10174;42.688;23.344;2022-11-15T14:24:39;95409.56;;;8.19;78.10
20027;BME280;10174;42.688;23.344;2022-11-15T14:27:19;95398.81;;;8.14;78.63
20027;BME280;10174;42.688;23.344;2022-11-15T14:29:45;95360.16;;;7.88;78.31
20027;BME280;10174;42.688;23.344;2022-11-15T14:32:28;95062.97;;;5.82;78.41
20027;BME280;10174;42.688;23.344;2022-11-15T14:34:59;95385.59;;;7.91;79.73
20027;BME280;10174;42.688;23.344;2022-11-15T14:37:34;95393.25;;;7.82;78.90
20027;BME280;10174;42.688;23.344;2022-11-15T14:40:00;95395.97;;;7.87;79.03
20027;BME280;10174;42.688;23.344;2022-11-15T14:42:26;95330.34;;;7.45;79.37
20027;BME280;10174;42.688;23.344;2022-11-15T14:44:52;95303.28;;;7.25;79.19
20027;BME280;10174;42.688;23.344;2022-11-15T14:47:18;95407.91;;;7.79;79.71
20027;BME280;10174;42.688;23.344;2022-11-15T14:49:44;95417.22;;;7.77;79.73
20027;BME280;10174;42.688;23.344;2022-11-15T14:52:30;95417.13;;;7.72;80.33
20027;BME280;10174;42.688;23.344;2022-11-15T14:55:00;95389.47;;;7.49;80.75
20027;BME280;10174;42.688;23.344;2022-11-15T14:57:27;95312.53;;;6.88;81.46
20027;BME280;10174;42.688;23.344;2022-11-15T14:59:53;95401.63;;;7.40;82.08
20027;BME280;10174;42.688;23.344;2022-11-15T15:02:23;95338.38;;;7.00;82.00
20027;BME280;10174;42.688;23.344;2022-11-15T15:04:49;95410.19;;;7.42;82.55
20027;BME280;10174;42.688;23.344;2022-11-15T15:07:16;95417.00;;;7.49;82.34
20027;BME280;10174;42.688;23.344;2022-11-15T15:09:41;95358.72;;;7.18;82.27
20027;BME280;10174;42.688;23.344;2022-11-15T15:12:23;95383.31;;;7.31;82.60
20027;BME280;10174;42.688;23.344;2022-11-15T15:14:49;95380.06;;;7.29;82.38
20027;BME280;10174;42.688;23.344;2022-11-15T15:17:16;95407.13;;;7.33;82.63
20027;BME280;10174;42.688;23.344;2022-11-15T15:19:42;95400.31;;;7.25;82.92
20027;BME280;10174;42.688;23.344;2022-11-15T15:22:18;95321.13;;;6.62;83.00
20027;BME280;10174;42.688;23.344;2022-11-15T15:24:44;95399.13;;;7.04;83.94
20027;BME280;10174;42.688;23.344;2022-11-15T15:27:10;95357.38;;;6.86;83.87
20027;BME280;10174;42.688;23.344;2022-11-15T15:29:36;95395.72;;;7.09;82.83
20027;BME280;10174;42.688;23.344;2022-11-15T15:32:02;95369.91;;;6.86;83.07